createdAt,value
2023-10-10T00:02:06.165Z,3.38
2023-10-10T00:07:15.425Z,3.10
2023-10-10T00:12:27.458Z,5.00
2023-10-10T00:17:36.140Z,3.15
2023-10-10T00:22:38.453Z,4.20
2023-10-10T00:27:45.155Z,3.40
2023-10-10T00:32:47.599Z,3.17
2023-10-10T00:37:49.768Z,3.65
2023-10-10T00:42:51.505Z,3.20
2023-10-10T00:47:54.695Z,3.28
2023-10-10T00:53:02.124Z,3.38
2023-10-10T00:58:05.566Z,3.28
2023-10-10T01:03:21.601Z,4.28
2023-10-10T01:08:28.290Z,4.22
2023-10-10T01:13:32.009Z,3.08
2023-10-10T01:18:53.072Z,3.25
2023-10-10T01:23:59.360Z,3.50
2023-10-10T01:29:14.046Z,3.35
2023-10-10T01:34:32.149Z,3.42
2023-10-10T01:39:50.778Z,3.10
2023-10-10T01:44:53.379Z,2.78
2023-10-10T01:49:59.778Z,3.17
2023-10-10T02:00:20.895Z,4.03
2023-10-10T02:05:46.639Z,3.55
2023-10-10T02:10:51.695Z,3.55
2023-10-10T02:15:54.579Z,3.67
2023-10-10T02:21:06.933Z,3.30
2023-10-10T02:26:29.000Z,3.33
2023-10-10T02:31:33.634Z,3.05
2023-10-10T02:36:36.521Z,3.00
2023-10-10T02:41:48.992Z,4.47
2023-10-10T02:46:54.934Z,3.28
2023-10-10T02:51:57.990Z,2.85
2023-10-10T02:57:23.373Z,3.50
2023-10-10T03:02:30.019Z,3.27
2023-10-10T03:07:31.986Z,3.13
2023-10-10T03:12:38.381Z,3.30
2023-10-10T03:23:15.733Z,3.33
2023-10-10T03:28:21.702Z,3.53
2023-10-10T03:33:38.571Z,3.22
2023-10-10T03:38:44.250Z,2.92
2023-10-10T03:44:04.318Z,3.00
2023-10-10T03:49:24.604Z,3.30
2023-10-10T03:54:45.168Z,3.30
2023-10-10T04:00:05.437Z,3.42
2023-10-10T04:05:28.015Z,3.33
2023-10-10T04:10:48.912Z,3.35
2023-10-10T04:16:09.201Z,3.30
2023-10-10T04:21:30.305Z,3.45
2023-10-10T04:26:50.612Z,3.50
2023-10-10T04:32:11.030Z,3.60
2023-10-10T04:37:31.024Z,3.10
2023-10-10T04:42:51.448Z,3.80
2023-10-10T04:48:11.800Z,4.50
2023-10-10T04:53:32.456Z,3.80
2023-10-10T04:58:52.879Z,4.07
2023-10-10T05:04:13.336Z,3.67
2023-10-10T05:09:33.232Z,4.45
2023-10-10T05:14:53.500Z,4.50
2023-10-10T05:20:13.694Z,7.28
2023-10-10T05:25:15.533Z,8.80
2023-10-10T05:30:26.512Z,7.57
2023-10-10T05:35:36.393Z,6.40
2023-10-10T05:40:39.875Z,4.65
2023-10-10T05:45:42.082Z,4.63
2023-10-10T05:50:44.377Z,4.30
2023-10-10T05:55:52.655Z,4.18
2023-10-10T06:00:56.106Z,3.45
2023-10-10T06:05:58.323Z,4.47
2023-10-10T06:11:01.270Z,4.07
2023-10-10T06:16:14.119Z,3.80
2023-10-10T06:21:16.477Z,3.88
2023-10-10T06:26:23.044Z,4.53
2023-10-10T06:31:35.586Z,4.85
2023-10-10T06:36:39.206Z,4.80
2023-10-10T06:41:42.475Z,3.92
2023-10-10T06:46:50.674Z,4.15
2023-10-10T06:51:56.774Z,6.90
2023-10-10T06:57:01.690Z,4.80
2023-10-10T07:02:22.195Z,4.00
2023-10-10T07:07:27.724Z,3.55
2023-10-10T07:12:30.199Z,4.90
2023-10-10T07:17:31.958Z,3.78
2023-10-10T07:22:35.687Z,3.60
2023-10-10T07:27:41.144Z,3.78
2023-10-10T07:32:53.051Z,4.20
2023-10-10T07:38:00.398Z,3.53
2023-10-10T07:43:04.700Z,3.50
2023-10-10T07:48:06.979Z,3.90
2023-10-10T07:53:14.027Z,3.38
2023-10-10T07:58:15.958Z,4.18
2023-10-10T08:03:23.431Z,4.15
2023-10-10T08:08:27.429Z,3.30
2023-10-10T08:13:30.105Z,3.55
2023-10-10T08:18:41.990Z,3.50
2023-10-10T08:23:46.525Z,3.42
2023-10-10T08:28:51.896Z,2.90
2023-10-10T08:33:53.649Z,4.18
2023-10-10T08:38:57.578Z,4.43
2023-10-10T08:43:59.551Z,4.78
2023-10-10T08:49:06.030Z,4.22
2023-10-10T08:59:19.283Z,4.07
2023-10-10T09:04:21.808Z,4.57
2023-10-10T09:09:41.171Z,4.53
2023-10-10T09:14:51.722Z,4.43
2023-10-10T09:19:53.771Z,3.25
2023-10-10T09:24:56.966Z,3.80
2023-10-10T09:29:59.256Z,4.00
2023-10-10T09:35:01.019Z,5.43
2023-10-10T09:40:17.042Z,3.72
2023-10-10T09:45:46.956Z,5.40
2023-10-10T09:51:08.774Z,4.60
2023-10-10T09:56:11.147Z,4.15
2023-10-10T10:01:24.482Z,4.05
2023-10-10T10:07:25.143Z,4.47
2023-10-10T10:12:48.486Z,3.97
2023-10-10T10:18:13.097Z,3.80
2023-10-10T10:23:29.966Z,3.85
2023-10-10T10:28:38.407Z,3.25
2023-10-10T10:34:00.310Z,4.13
2023-10-10T10:39:26.614Z,3.42
2023-10-10T10:49:39.462Z,4.10
2023-10-10T10:54:44.747Z,3.35
2023-10-10T10:59:56.619Z,3.00
2023-10-10T11:04:59.849Z,2.70
2023-10-10T11:10:08.425Z,2.55
2023-10-10T11:15:13.586Z,3.10
2023-10-10T11:20:30.435Z,2.67
2023-10-10T11:25:42.826Z,4.07
2023-10-10T11:30:47.109Z,3.63
2023-10-10T11:36:02.669Z,2.80
2023-10-10T11:41:10.426Z,2.90
2023-10-10T11:46:13.812Z,3.53
2023-10-10T11:51:15.987Z,2.97
2023-10-10T11:56:18.694Z,2.55
2023-10-10T12:01:40.444Z,3.20
2023-10-10T12:06:43.152Z,2.70
2023-10-10T12:11:44.894Z,2.65
2023-10-10T12:16:51.609Z,2.40
2023-10-10T12:21:53.421Z,2.97
2023-10-10T12:26:55.601Z,3.53
2023-10-10T12:31:57.918Z,3.22
2023-10-10T12:37:02.864Z,3.40
2023-10-10T12:42:04.963Z,2.88
2023-10-10T12:47:09.912Z,3.25
2023-10-10T12:52:18.635Z,4.00
2023-10-10T12:57:24.468Z,4.00
2023-10-10T13:02:27.703Z,3.92
2023-10-10T13:07:36.038Z,4.45
2023-10-10T13:12:38.573Z,4.38
2023-10-10T13:17:51.747Z,4.40
2023-10-10T13:22:53.643Z,3.53
2023-10-10T13:27:55.358Z,3.17
2023-10-10T13:32:57.232Z,3.28
2023-10-10T13:37:59.020Z,2.55
2023-10-10T13:43:00.998Z,3.10
2023-10-10T13:48:04.663Z,2.75
2023-10-10T13:53:06.683Z,3.10
2023-10-10T13:58:11.456Z,2.97
2023-10-10T14:03:16.117Z,4.03
2023-10-10T14:08:19.322Z,3.47
2023-10-10T14:13:22.238Z,3.60
2023-10-10T14:18:28.513Z,3.22
2023-10-10T14:28:35.162Z,3.05
2023-10-10T14:33:40.559Z,4.55
2023-10-10T14:38:46.386Z,3.53
2023-10-10T14:43:50.476Z,3.30
2023-10-10T14:49:02.372Z,3.13
2023-10-10T14:54:14.256Z,3.85
2023-10-10T14:59:32.935Z,3.22
2023-10-10T15:04:36.805Z,3.33
2023-10-10T15:09:38.629Z,3.63
2023-10-10T15:14:40.470Z,2.97
2023-10-10T15:19:43.205Z,3.47
2023-10-10T15:24:51.328Z,3.10
2023-10-10T15:29:53.217Z,3.42
2023-10-10T15:34:56.517Z,3.13
2023-10-10T15:39:58.966Z,3.60
2023-10-10T15:45:00.743Z,3.60
2023-10-10T15:50:02.507Z,4.15
2023-10-10T15:55:07.424Z,3.63
2023-10-10T16:00:15.409Z,3.67
2023-10-10T16:05:17.656Z,3.60
2023-10-10T16:10:19.482Z,3.70
2023-10-10T16:15:30.335Z,4.53
2023-10-10T16:20:37.116Z,3.95
2023-10-10T16:25:39.717Z,3.78
2023-10-10T16:30:43.001Z,3.70
2023-10-10T16:35:47.704Z,3.97
2023-10-10T16:40:51.559Z,3.95
2023-10-10T16:45:53.454Z,4.55
2023-10-10T16:50:55.397Z,3.90
2023-10-10T16:56:07.846Z,4.43
2023-10-10T17:01:14.124Z,3.60
2023-10-10T17:06:24.407Z,3.90
2023-10-10T17:11:28.083Z,4.00
2023-10-10T17:16:30.679Z,4.50
2023-10-10T17:21:35.657Z,3.53
2023-10-10T17:26:45.117Z,4.28
2023-10-10T17:31:47.517Z,3.75
2023-10-10T17:36:58.852Z,4.03
2023-10-10T17:42:01.159Z,4.00
2023-10-10T17:47:04.394Z,3.70
2023-10-10T17:52:06.572Z,3.67
2023-10-10T17:57:11.018Z,4.60
2023-10-10T18:02:12.733Z,3.85
2023-10-10T18:07:15.313Z,4.45
2023-10-10T18:12:17.960Z,3.90
2023-10-10T18:17:23.150Z,4.20
2023-10-10T18:22:26.604Z,4.53
2023-10-10T18:27:28.332Z,4.35
2023-10-10T18:32:30.229Z,4.28
2023-10-10T18:37:32.202Z,4.50
2023-10-10T18:42:33.923Z,4.65
2023-10-10T18:47:36.375Z,4.70
2023-10-10T18:52:38.270Z,4.55
2023-10-10T18:57:39.978Z,4.57
2023-10-10T19:02:45.863Z,5.60
2023-10-10T19:07:47.676Z,4.60
2023-10-10T19:12:52.541Z,3.95
2023-10-10T19:17:59.946Z,4.57
2023-10-10T19:23:10.227Z,3.70
2023-10-10T19:28:12.109Z,4.28
2023-10-10T19:33:16.470Z,4.03
2023-10-10T19:38:20.759Z,4.05
2023-10-10T19:43:26.564Z,4.50
2023-10-10T19:48:31.424Z,4.60
2023-10-10T19:53:34.195Z,5.07
2023-10-10T19:58:36.014Z,4.28
2023-10-10T20:03:40.554Z,4.85
2023-10-10T20:08:42.740Z,4.47
2023-10-10T20:13:46.629Z,4.50
2023-10-10T20:18:49.013Z,4.80
2023-10-10T20:23:51.164Z,4.20
2023-10-10T20:28:54.065Z,4.47
2023-10-10T20:33:55.904Z,4.10
2023-10-10T20:38:57.998Z,4.38
2023-10-10T20:44:00.670Z,4.20
2023-10-10T20:49:02.510Z,4.70
2023-10-10T20:54:05.273Z,4.30
2023-10-10T20:59:08.462Z,3.95
2023-10-10T21:04:10.180Z,4.03
2023-10-10T21:09:12.355Z,3.88
2023-10-10T21:14:14.702Z,3.90
2023-10-10T21:19:16.743Z,4.13
2023-10-10T21:24:18.828Z,4.35
2023-10-10T21:29:21.036Z,3.85
2023-10-10T21:34:24.709Z,4.30
2023-10-10T21:39:26.600Z,4.85
2023-10-10T21:44:28.888Z,4.43
2023-10-10T21:49:30.907Z,4.10
2023-10-10T21:54:33.960Z,4.38
2023-10-10T21:59:35.881Z,3.88
2023-10-10T22:04:37.894Z,4.90
2023-10-10T22:09:39.807Z,4.60
2023-10-10T22:14:42.604Z,5.40
2023-10-10T22:19:44.307Z,4.75
2023-10-10T22:24:46.003Z,4.82
2023-10-10T22:29:47.710Z,4.88
2023-10-10T22:34:49.475Z,4.75
2023-10-10T22:39:51.732Z,4.32
2023-10-10T22:44:54.982Z,5.05
2023-10-10T22:49:58.042Z,4.22
2023-10-10T22:54:59.831Z,3.92
2023-10-10T23:00:07.241Z,5.00
2023-10-10T23:05:10.031Z,5.35
2023-10-10T23:10:13.909Z,4.15
2023-10-10T23:15:17.381Z,4.20
2023-10-10T23:20:22.218Z,4.38
2023-10-10T23:25:27.401Z,4.10
2023-10-10T23:30:29.618Z,3.22
2023-10-10T23:35:32.686Z,3.47
2023-10-10T23:40:42.848Z,3.75
2023-10-10T23:45:45.187Z,3.30
2023-10-10T23:50:47.541Z,3.40
2023-10-10T23:55:49.659Z,3.72
